Date,TemperatureHighF,TemperatureAvgF,TemperatureLowF,DewpointHighF,DewpointAvgF,DewpointLowF,HumidityHigh,HumidityAvg,HumidityLow,PressureMaxIn,PressureMinIn,WindSpeedMaxMPH,WindSpeedAvgMPH,GustSpeedMaxMPH,PrecipitationSumIn
2013-1-15,34.9,34.4,33.1,33.5,31.5,30.4,98,89,84,30.11,30.07,2,1,0,0.00
2013-1-16,40.1,36.0,30.9,32.4,-49.6,-58.8,98,5,18,30.09,29.62,4,1,0,0.00
2013-1-17,42.3,36.5,28.8,35.7,-1.8,-57.8,95,48,12,29.94,29.73,9,2,0,0.34
2013-1-18,28.2,23.5,19.4,22.8,12.0,5.9,80,61,45,30.32,29.87,11,2,0,0.00
2013-1-19,46.0,36.5,24.1,36.0,28.2,14.9,85,72,59,30.21,29.75,6,2,0,0.02
2013-1-20,50.7,40.9,26.6,36.6,30.2,12.2,92,68,39,29.84,29.49,11,4,0,0.00
2013-1-21,31.5,25.9,19.2,26.4,15.0,-0.5,98,65,31,29.92,29.63,5,0,0,0.00
2013-1-22,21.6,17.1,9.7,14.1,2.2,-7.9,84,52,27,29.97,29.63,14,4,0,0.00
2013-1-23,18.1,11.5,6.8,5.2,-1.5,-5.8,70,56,39,30.03,29.94,10,2,0,0.00
2013-1-24,21.6,12.3,4.6,3.8,0.0,-3.9,80,58,39,30.17,29.92,11,2,0,0.00
2013-1-25,25.7,16.5,7.2,19.8,7.4,1.7,98,69,38,30.22,29.88,4,0,0,0.00
2013-1-26,25.2,18.0,11.7,13.9,9.8,5.5,92,71,54,30.17,29.85,16,2,0,0.00
2013-1-27,32.5,21.2,10.4,15.9,10.6,6.4,98,67,36,30.34,30.15,7,1,0,0.00
2013-1-28,37.0,29.8,20.5,28.1,-17.9,-58.6,98,36,1,30.33,29.82,6,1,0,0.00
2013-1-29,42.6,39.8,37.2,24.9,-41.6,-54.8,55,6,1,30.02,29.82,3,1,0,0.23
2013-1-30,64.8,56.0,41.0,-37.9,-43.3,-52.5,1,1,1,29.96,29.24,6,2,0,0.03
2013-1-31,68.2,47.2,27.1,37.7,-3.5,-50.8,77,34,1,29.56,28.89,20,8,0,1.35
2013-2-1,30.6,25.6,20.1,20.2,13.4,7.9,80,60,44,30.01,29.56,15,4,0,0.00
2013-2-2,31.1,22.9,16.3,22.7,7.0,-63.8,98,60,6,30.10,29.88,7,2,0,0.00
2013-2-3,31.5,24.3,18.3,25.8,4.1,-66.1,97,58,5,29.88,29.59,3,0,0,0.01
2013-2-4,30.4,24.4,20.1,21.0,14.1,10.0,91,66,46,29.82,29.60,10,2,0,0.00
2013-2-5,30.6,26.1,21.2,29.4,24.2,15.4,98,93,71,29.83,29.75,3,0,0,0.00
2013-2-6,38.8,30.8,24.8,32.8,19.2,-0.8,98,63,28,30.20,29.75,9,1,0,0.03
2013-2-7,34.5,25.3,19.4,23.2,11.4,3.6,89,56,36,30.36,30.17,7,1,0,0.00
2013-2-8,37.6,31.0,27.1,28.3,-28.2,-60.6,98,33,1,30.20,29.44,26,6,0,0.00
2013-2-9,28.8,24.6,16.5,22.2,-11.4,-63.3,86,42,1,30.09,29.54,19,6,0,0.00
2013-2-10,40.3,25.4,12.2,26.3,7.4,-2.5,90,50,18,30.31,30.10,6,1,0,0.03
2013-2-11,52.7,43.1,28.4,32.4,-19.5,-53.2,98,34,1,30.18,29.50,8,0,0,0.35
2013-2-12,47.3,39.2,35.1,37.3,22.2,-54.6,98,69,1,29.80,29.53,14,5,0,0.00
2013-2-13,46.2,35.7,26.2,33.5,26.9,-56.1,98,77,1,29.79,29.52,5,0,0,0.00
2013-2-14,44.8,36.7,28.8,35.5,16.5,-58.3,98,62,1,29.84,29.55,6,1,0,0.03
2013-2-15,52.9,41.4,32.7,43.3,35.1,-13.7,98,82,11,29.86,29.76,6,1,0,0.00
2013-2-16,39.9,32.7,27.1,38.9,8.1,-58.3,98,61,1,29.81,29.55,10,3,0,0.02
2013-2-17,29.8,23.0,14.4,21.4,8.5,2.9,78,54,34,29.73,29.42,14,6,0,0.00
2013-2-18,33.4,22.9,13.8,14.7,8.9,4.6,69,55,40,30.05,29.72,13,2,0,0.00
2013-2-19,47.7,38.7,25.5,45.7,1.6,-54.4,98,51,1,30.05,29.47,16,2,0,0.30
2013-2-20,36.7,28.8,22.1,33.3,19.7,-5.2,98,70,16,29.75,29.50,14,4,0,0.00
2013-2-21,34.9,25.4,20.8,21.2,17.6,15.4,89,72,55,30.13,29.72,14,2,0,0.00
2013-2-22,40.5,30.5,20.7,34.4,27.1,19.5,98,88,62,30.25,30.08,14,0,0,0.00
2013-2-23,39.4,36.2,33.6,33.8,-25.5,-56.1,98,32,1,30.14,29.66,5,1,0,0.12
2013-2-24,41.0,37.0,31.3,40.1,-18.0,-55.1,98,38,1,29.78,29.56,8,2,0,0.01
2013-2-25,45.5,36.8,30.4,34.4,32.0,29.6,98,84,63,30.10,29.77,12,2,0,0.00
2013-2-26,45.0,36.8,30.0,38.7,33.1,10.7,98,88,38,30.17,29.82,4,0,0,0.08
2013-2-27,45.1,41.1,33.8,-6.3,-51.7,-56.8,17,0,3,29.81,29.34,12,3,0,1.21
2013-2-28,50.0,41.7,36.1,47.5,-3.0,-55.5,98,47,17,29.47,29.36,3,0,0,0.01
2013-3-1,44.8,38.0,32.9,37.6,33.3,16.0,98,84,42,29.61,29.41,9,2,0,0.01
2013-3-2,39.7,34.4,29.3,34.1,31.2,28.8,98,89,74,29.61,29.51,7,1,0,0.00
2013-3-3,36.3,30.4,27.1,32.6,26.8,23.0,98,87,68,29.56,29.48,8,2,0,0.00
2013-3-4,42.4,32.3,25.9,29.1,25.7,22.3,92,77,57,29.71,29.54,14,3,0,0.00
2013-3-5,46.9,37.1,28.4,35.3,31.2,26.5,98,80,59,29.88,29.70,17,2,0,0.00
2013-3-6,41.5,37.5,34.9,41.0,36.7,34.0,98,97,85,29.87,29.74,23,6,0,0.00
2013-3-7,37.2,33.4,31.1,36.4,-4.3,-58.1,98,49,1,29.90,29.74,23,8,0,0.01
2013-3-8,37.6,33.7,29.7,33.2,-41.3,-59.5,90,16,1,30.01,29.80,11,1,0,0.13
2013-3-9,53.6,39.8,30.7,34.0,30.6,28.1,98,73,41,30.19,29.99,9,2,0,0.04
2013-3-10,51.3,38.5,27.7,43.2,30.7,-5.1,98,77,22,30.24,30.15,4,0,0,0.00
2013-3-11,55.0,44.6,36.0,52.3,35.8,-54.2,98,84,5,30.17,29.97,8,1,0,0.00
2013-3-12,57.2,51.2,40.8,-42.6,-46.2,-52.6,0,0,100,29.97,29.52,8,2,0,1.67
2013-3-13,49.5,40.5,31.5,37.7,5.1,-58.4,98,45,1,29.73,29.61,9,1,0,0.00
2013-3-14,37.0,31.1,26.4,33.5,19.8,11.9,98,64,42,29.74,29.64,13,4,0,0.00
2013-3-15,43.3,33.3,23.2,38.2,24.1,13.0,98,70,47,29.78,29.54,11,3,0,0.00
2013-3-16,39.9,33.1,28.9,33.3,22.4,-8.4,98,68,17,29.75,29.59,10,1,0,0.01
2013-3-17,38.3,30.7,24.6,23.8,12.4,-61.6,91,52,1,30.15,29.74,8,1,0,0.00
2013-3-18,36.9,28.7,21.2,19.8,13.8,10.3,71,54,39,30.26,30.10,8,1,0,0.00
2013-3-22,41.9,35.6,26.4,28.7,26.3,23.9,90,69,53,29.69,29.56,10,3,0,0.00
2013-3-23,46.2,37.0,30.4,30.1,26.7,23.0,88,68,45,29.75,29.59,12,2,0,0.00
2013-3-24,45.5,36.5,27.0,30.8,27.2,22.3,92,70,55,29.77,29.55,11,1,0,0.00
2013-3-25,44.4,38.3,33.1,35.8,32.9,29.8,98,82,65,29.57,29.28,14,2,0,0.00
2013-3-26,51.4,41.4,34.3,36.0,33.2,28.5,98,74,49,29.69,29.41,6,1,0,0.00
2013-3-27,52.3,40.6,30.0,33.6,30.5,28.0,93,69,42,29.79,29.66,7,0,0,0.00
2013-3-28,49.8,40.7,31.5,43.1,37.3,31.0,98,88,64,29.94,29.77,11,1,0,0.00
2013-3-29,56.1,44.7,34.2,41.2,36.0,32.7,98,75,44,29.98,29.87,7,1,0,0.00
2013-3-30,57.7,44.7,31.5,39.2,30.8,23.7,98,64,27,30.01,29.89,7,0,0,0.00
2013-3-31,55.9,46.1,32.9,47.7,28.3,-50.4,98,60,1,30.00,29.51,9,1,0,0.15
2013-4-1,61.2,48.2,36.1,52.0,0.3,-50.5,98,40,1,29.69,29.42,14,2,0,0.02
2013-4-3,45.7,39.0,32.2,20.0,16.9,13.8,60,41,30,30.11,29.91,12,4,0,0.00
2013-4-4,56.8,39.1,25.2,38.9,26.0,16.4,98,63,31,30.23,29.94,4,1,0,0.00
2013-4-5,62.2,47.7,37.6,39.6,30.9,20.2,98,59,21,29.93,29.54,15,2,0,0.00
2013-4-6,53.2,39.7,31.1,32.8,16.7,-4.1,91,45,9,30.17,29.80,10,2,0,0.00
2013-4-7,57.0,45.7,34.0,51.1,40.2,-4.1,98,84,12,30.16,29.86,10,2,0,0.00
2013-4-8,48.0,44.9,43.3,-48.2,-50.1,-51.1,1,1,1,29.91,29.82,0,0,0,0.00
2013-4-9,79.3,69.4,58.5,48.5,46.6,44.7,69,46,32,29.86,29.76,7,1,0,0.00
2013-4-10,71.4,58.9,49.6,65.3,29.5,-47.2,98,59,1,29.83,29.68,10,1,0,0.23
2013-4-11,59.2,52.9,45.1,56.8,4.9,-47.3,98,47,1,29.93,29.66,8,1,0,0.01
2013-4-12,45.3,42.0,38.5,44.3,-11.0,-53.7,98,40,1,29.92,29.57,8,2,0,0.47
2013-4-13,58.1,46.1,37.4,47.2,5.1,-54.7,98,46,1,29.81,29.58,8,0,0,0.08
2013-4-14,57.7,48.6,41.0,45.2,36.7,30.9,98,66,40,30.07,29.79,14,2,0,0.00
2013-4-15,64.8,49.8,36.5,41.9,37.2,31.2,93,65,38,30.25,30.08,6,1,0,0.00
2013-4-16,68.5,53.0,39.7,60.4,40.3,-44.1,98,80,1,30.24,29.97,7,1,0,0.00
2013-4-17,68.5,57.8,50.4,50.2,26.7,-46.0,98,45,1,30.17,29.96,12,2,0,0.01
2013-4-18,64.4,53.1,42.8,54.3,41.1,-14.1,98,69,8,30.24,29.98,7,1,0,0.00
2013-4-19,75.6,62.9,52.0,70.6,-15.3,-45.2,98,19,1,29.97,29.52,14,2,0,0.00
2013-4-20,63.9,53.0,43.0,44.7,3.5,-50.5,71,30,1,30.12,29.51,9,1,0,0.22
2013-4-21,56.5,43.1,32.5,37.7,28.6,23.9,93,59,34,30.50,30.15,14,1,0,0.00
2013-4-22,61.3,46.0,34.9,44.6,36.8,30.2,98,74,41,30.55,30.38,6,0,0,0.00
2013-4-23,47.3,41.4,36.0,46.8,30.1,-53.2,98,81,1,30.38,29.95,12,2,0,0.00
2013-4-24,76.3,55.3,41.4,58.4,12.2,-52.2,98,37,1,29.96,29.70,7,0,0,0.00
2013-4-25,68.5,55.9,46.0,44.2,19.4,-46.5,83,39,1,30.13,29.71,7,1,0,0.00
2013-4-26,70.7,54.2,38.3,42.1,38.2,33.9,98,60,30,30.29,30.12,7,1,0,0.00
2013-4-27,72.5,55.5,42.1,44.3,33.7,17.8,90,50,15,30.30,30.14,9,1,0,0.00
2013-4-28,75.4,57.0,42.3,52.0,31.0,-51.7,98,52,1,30.20,30.07,6,1,0,0.00
2013-4-29,60.8,54.6,49.3,57.9,49.6,33.1,98,84,52,30.13,30.06,3,0,0,0.00
2013-4-30,74.8,58.7,46.6,51.4,40.9,23.9,98,60,16,30.21,30.07,5,0,0,0.00
2013-5-1,76.3,58.2,40.3,51.5,42.3,30.9,98,60,25,30.36,30.19,6,1,0,0.00
2013-5-2,82.4,62.6,43.0,52.5,41.1,-50.8,98,54,1,30.36,30.17,5,1,0,0.00
2013-5-3,75.0,58.4,47.3,54.4,45.7,-48.6,98,68,1,30.34,30.21,7,1,0,0.00
2013-5-4,79.0,57.8,43.2,53.7,18.8,-51.1,98,44,1,30.25,30.09,12,1,0,0.00
2013-5-5,72.3,53.7,40.6,53.8,14.1,-52.7,98,44,1,30.18,30.08,8,1,0,0.00
2013-5-6,77.9,58.8,42.8,61.4,17.3,-51.4,98,45,1,30.14,30.02,3,0,0,0.00
2013-5-7,83.3,64.9,46.4,69.4,26.7,-49.2,98,47,1,30.06,29.96,5,1,0,0.00
2013-5-8,66.6,62.0,57.2,50.7,-35.3,-42.6,62,2,1,30.01,29.86,7,0,0,0.61
2013-5-9,67.6,60.2,56.5,41.8,-36.8,-43.0,44,3,1,29.91,29.75,3,0,0,0.55
2013-5-10,86.5,69.5,57.0,67.6,20.8,-42.7,98,41,11,29.86,29.75,6,1,0,0.00
2013-5-11,66.2,63.6,58.6,53.5,-35.6,-41.7,80,2,6,29.76,29.56,6,1,0,0.35
2013-5-12,73.9,63.2,47.7,60.1,6.8,-42.7,68,28,27,29.76,29.50,7,1,0,0.06
2013-5-13,63.0,48.8,38.7,42.7,37.4,33.3,98,69,34,29.95,29.76,11,1,0,0.00
2013-5-14,65.1,49.5,35.2,43.4,33.5,22.5,98,58,28,29.97,29.87,7,0,0,0.00
2013-5-15,70.0,55.0,40.3,65.4,22.9,-52.9,98,59,1,29.95,29.53,4,0,0,0.01
2013-5-16,90.5,70.4,55.9,62.8,17.5,-43.3,98,31,1,29.70,29.55,6,1,0,0.00
2013-5-17,72.0,61.4,53.2,53.4,49.0,45.2,98,65,42,30.08,29.70,12,1,0,0.00
2013-5-18,78.4,60.0,47.1,60.2,52.8,9.1,98,81,15,30.19,30.07,7,1,0,0.00
2013-5-19,60.6,58.3,55.4,46.7,-29.7,-43.4,72,9,1,30.20,30.03,3,0,0,0.28
2013-5-20,88.2,70.7,60.6,80.4,6.5,-40.5,98,33,1,30.03,29.83,3,0,0,0.01
2013-5-21,95.7,78.5,66.7,82.0,26.6,-36.8,98,42,1,29.86,29.70,4,0,0,0.00
2013-5-22,85.5,68.6,58.8,83.6,3.1,-41.6,98,33,1,29.83,29.71,2,0,0,0.03
2013-5-23,76.8,69.2,65.5,73.5,-27.0,-37.5,98,7,1,29.78,29.64,6,0,0,2.44
2013-5-24,68.5,57.7,44.6,-35.7,-42.3,-50.3,1,1,1,29.75,29.53,17,2,0,0.48
2013-5-25,50.2,44.9,42.3,45.4,-18.4,-51.7,98,29,1,29.79,29.68,7,3,0,0.82
2013-5-26,66.4,52.9,43.3,51.5,45.7,35.7,98,79,50,30.04,29.72,14,2,0,0.00
2013-5-27,82.4,61.8,42.3,55.5,46.7,41.5,98,67,25,30.11,29.97,6,1,0,0.00
2013-5-28,75.4,58.8,46.4,64.7,22.0,-48.6,98,49,1,30.10,30.00,3,0,0,0.19
2013-5-29,87.4,69.6,58.3,82.7,1.9,-41.9,98,30,1,30.01,29.88,2,0,0,0.02
2013-5-30,100.4,81.1,64.9,78.4,33.4,-37.9,98,42,1,30.01,29.91,5,0,0,0.00
2013-5-31,102.6,82.4,68.2,79.6,72.2,64.3,98,76,32,30.01,29.86,4,1,0,0.00
2013-6-1,98.8,81.1,66.9,82.5,65.5,-36.7,98,73,1,29.91,29.78,6,1,0,0.00
2013-6-2,93.6,78.4,66.9,84.0,42.5,-36.7,98,57,1,29.80,29.64,6,0,0,0.01
2013-6-3,84.9,71.9,62.2,80.5,14.8,-37.3,98,44,1,29.76,29.67,9,1,0,1.27
2013-6-4,82.4,65.1,50.2,60.6,53.7,48.5,98,72,33,29.98,29.76,7,0,0,0.00
2013-6-5,84.0,65.8,50.9,59.5,55.1,50.4,98,73,37,30.08,29.97,4,0,0,0.00
2013-6-6,78.1,64.2,53.4,70.5,15.8,-44.9,98,42,1,30.04,29.94,3,0,0,0.00
2013-6-8,79.7,71.1,61.0,77.0,55.0,-40.2,98,76,22,29.93,29.77,0,0,0,0.00
2013-6-9,88.2,71.3,57.9,70.1,20.2,-42.1,98,37,37,30.07,29.95,4,0,0,0.00
2013-6-10,76.3,65.5,60.8,75.7,0.1,-40.4,98,30,6,30.07,29.77,3,0,0,1.08
2013-6-11,85.1,71.1,63.7,80.4,19.6,-38.6,98,48,39,29.76,29.45,7,1,0,0.50
2013-6-12,79.0,67.3,59.0,66.3,62.0,58.4,98,85,56,29.72,29.52,9,1,0,0.00
2013-6-13,61.0,58.6,54.5,59.3,-0.1,-44.1,98,39,1,29.71,29.40,11,1,0,1.17
2013-6-14,78.1,62.0,53.8,73.0,14.6,-44.6,98,46,1,29.74,29.40,14,1,0,0.68
2013-6-15,87.4,69.7,56.5,66.3,22.7,-43.0,98,38,5,29.87,29.73,4,0,0,0.00
2013-6-16,85.3,71.4,56.8,76.2,65.2,56.2,98,83,47,29.88,29.62,7,0,0,0.00
2013-6-17,90.9,74.6,64.0,84.1,36.1,-38.4,98,53,11,29.81,29.70,2,0,0,0.40
2013-6-18,86.2,70.6,61.3,82.3,5.6,-40.1,98,34,1,29.81,29.68,5,0,0,0.66
2013-6-19,78.6,65.9,56.5,64.5,27.0,-43.0,98,48,1,30.06,29.77,9,1,0,0.01
2013-6-20,85.1,68.4,54.5,70.5,59.0,-1.5,98,77,8,30.15,30.05,6,0,0,0.00
2013-6-21,87.8,71.2,57.6,75.5,66.0,57.0,98,86,56,30.18,30.10,6,1,0,0.00
2013-6-22,87.8,72.8,58.5,74.4,66.7,57.9,98,84,51,30.15,30.01,6,0,0,0.00
2013-6-23,94.8,77.5,63.7,86.5,73.8,63.1,98,90,57,30.08,29.93,6,0,0,0.00
2013-6-24,96.8,80.4,69.6,89.2,54.3,-35.1,98,64,1,29.96,29.80,5,0,0,0.07
2013-6-25,94.8,80.0,68.2,90.0,39.5,-35.9,98,55,11,29.87,29.65,9,1,0,0.00
2013-6-26,84.6,77.2,72.7,84.0,63.9,-32.9,98,86,1,29.72,29.63,5,0,0,0.08
2013-6-27,89.1,77.3,71.6,88.5,18.7,-33.6,98,44,1,29.71,29.47,4,0,0,0.60
2013-6-28,89.2,78.9,72.5,88.6,32.7,-32.4,98,56,1,29.46,29.33,6,2,0,0.02
2013-6-29,89.2,77.0,70.3,86.3,26.1,-34.6,98,49,1,29.59,29.36,5,1,0,0.00
2013-6-30,85.5,76.5,72.1,84.9,6.7,-33.6,98,31,1,29.80,29.57,5,0,0,0.01
2013-7-1,80.4,76.8,75.6,-28.6,-30.7,-31.5,1,1,1,29.94,29.78,5,1,0,1.24
2013-7-2,87.1,78.7,74.7,86.5,17.9,-31.2,98,40,1,30.07,29.94,5,1,0,0.01
2013-7-3,88.3,79.1,73.8,87.7,29.4,-32.5,98,49,1,30.14,30.05,5,1,0,0.00
2013-7-4,93.2,83.1,75.7,91.5,39.0,-30.6,98,57,1,30.14,30.02,7,1,0,0.00
2013-7-5,95.4,83.2,73.9,91.7,54.1,-32.5,98,67,2,30.10,29.95,6,1,0,0.00
2013-7-6,95.0,82.5,75.0,91.6,74.3,-4.0,98,84,4,30.03,29.90,7,0,0,0.00
2013-7-7,100.4,85.3,75.2,93.6,68.5,-31.6,98,75,14,29.95,29.79,4,0,0,0.00
2013-7-8,93.9,80.4,71.1,87.8,77.5,70.5,98,92,64,29.92,29.82,6,1,0,0.00
2013-7-9,91.9,78.8,69.4,90.3,58.4,-34.7,98,76,1,29.96,29.87,2,0,0,0.00
2013-7-10,87.1,79.8,74.5,86.5,36.9,-32.1,98,59,38,29.91,29.67,4,0,0,0.22
2013-7-11,86.7,78.1,71.4,84.9,30.1,-31.5,98,53,7,29.82,29.67,3,0,0,0.15
2013-7-12,79.3,71.8,65.7,78.7,70.8,46.8,98,97,50,30.02,29.80,8,2,0,0.07
2013-7-13,81.3,73.8,65.5,80.7,10.7,-37.5,98,37,1,30.18,30.01,2,0,0,0.10
2013-7-14,94.5,83.9,77.0,91.2,35.4,-30.2,98,52,1,30.21,30.10,2,0,0,0.00
2013-7-15,93.2,82.7,74.1,90.8,79.2,48.3,98,90,39,30.12,30.01,5,0,0,0.00
2013-7-16,94.1,82.8,73.6,87.7,76.7,70.4,98,84,49,30.08,30.01,6,1,0,0.00
2013-7-17,99.1,84.2,72.0,89.9,74.9,17.6,98,78,10,30.10,29.93,2,0,0,0.00
2013-7-18,99.7,85.7,75.6,90.1,55.2,-30.7,98,62,2,29.96,29.84,4,0,0,0.14
2013-7-19,98.8,87.2,76.6,90.6,80.8,60.6,98,83,55,29.85,29.65,7,1,0,0.00
2013-7-20,95.7,84.3,74.7,90.2,81.4,74.1,98,92,53,29.72,29.59,6,1,0,0.00
2013-7-21,90.5,78.0,68.9,83.2,73.9,66.6,98,89,57,29.86,29.72,4,0,0,0.00
2013-7-22,86.5,76.9,71.4,85.9,24.8,-33.6,98,48,1,29.86,29.71,3,0,0,0.22
2013-7-23,91.8,80.6,75.6,91.2,22.4,-31.5,98,45,1,29.71,29.42,7,0,0,2.36
2013-7-24,84.9,75.5,62.8,81.6,23.9,-32.5,98,50,20,29.82,29.47,4,1,0,0.00
2013-7-25,64.2,61.6,58.8,63.6,60.7,50.2,98,97,66,29.95,29.81,7,0,0,0.02
2013-7-26,85.5,69.9,61.9,77.3,42.1,-39.4,98,65,1,29.92,29.85,7,1,0,0.05
2013-7-27,87.6,75.1,66.6,75.5,26.8,-36.1,98,42,16,29.94,29.85,2,0,0,0.00
2013-7-28,80.8,73.8,68.7,79.8,19.3,-35.6,98,45,4,29.90,29.82,2,0,0,0.05
2013-7-29,88.3,77.4,64.8,76.4,17.4,-32.9,98,35,48,29.97,29.83,4,0,0,0.02
2013-7-30,85.3,70.8,58.3,72.3,62.1,43.9,99,77,45,30.03,29.96,5,0,0,0.00
2013-7-31,85.5,71.5,60.4,73.3,55.7,-39.0,98,69,1,30.04,29.92,2,0,0,0.00
2013-8-1,79.0,69.8,65.1,76.6,6.8,-36.7,98,35,2,29.94,29.71,2,0,0,0.50
2013-8-2,86.9,75.5,68.2,76.8,19.3,-35.1,98,38,25,29.78,29.65,3,0,0,0.07
2013-8-3,81.7,70.6,64.6,76.4,40.2,-36.4,98,64,1,29.79,29.70,3,0,0,0.14
2013-8-4,83.8,69.3,62.2,71.7,18.7,-38.9,99,42,1,29.83,29.70,12,0,0,0.00
2013-8-5,81.5,65.3,55.4,62.0,50.4,-1.0,98,64,8,29.93,29.82,11,0,0,0.00
2013-8-6,83.3,68.8,55.8,69.2,60.6,53.0,98,79,43,30.03,29.92,0,0,0,0.00
2013-8-7,82.6,70.7,61.5,76.2,44.3,-39.7,98,64,8,30.04,29.96,2,0,0,0.00
2013-8-8,84.4,75.2,70.9,82.8,17.2,-34.2,98,39,11,29.97,29.89,2,0,0,0.04
2013-8-9,85.1,78.5,74.3,84.1,-15.0,-32.2,98,12,1,29.91,29.66,7,1,0,0.44
2013-8-10,85.8,75.5,62.6,68.5,20.1,-34.9,98,36,1,29.93,29.72,4,0,0,0.00
2013-8-11,83.7,69.4,55.8,69.4,58.5,40.9,98,71,46,30.00,29.90,3,0,0,0.00
2013-8-12,86.2,73.4,66.0,70.5,40.9,-36.8,98,52,2,29.94,29.80,4,0,0,0.00
2013-8-13,79.2,73.3,68.7,75.5,-7.2,-35.5,98,20,1,29.82,29.56,2,0,0,0.14
2013-8-14,75.9,66.4,56.8,57.8,26.7,-39.4,75,42,1,29.76,29.61,6,1,0,0.00
2013-8-15,81.5,71.3,60.3,61.7,56.1,50.4,96,62,38,30.02,29.93,3,0,0,0.00
2013-8-16,84.2,68.3,55.0,66.5,46.0,-41.9,98,61,1,30.09,30.00,1,0,0,0.00
2013-8-17,84.2,69.4,58.1,68.8,54.0,-40.2,98,68,23,30.17,30.09,2,0,0,0.00
2013-8-18,79.5,68.4,61.2,71.2,47.3,-39.4,98,68,13,30.16,30.00,0,0,0,0.00
2013-8-19,80.2,69.1,61.5,75.3,8.0,-39.8,98,31,4,30.01,29.89,0,0,0,0.02
2013-8-20,88.3,74.9,64.9,71.4,19.4,-37.9,98,35,38,30.01,29.91,2,0,0,0.01
2013-8-21,91.4,76.6,66.4,74.2,30.6,-37.0,98,41,9,30.06,29.91,2,0,0,0.00
2013-8-22,80.1,74.8,69.8,68.6,-11.3,-34.6,76,13,1,29.96,29.74,3,0,0,0.52
2013-8-23,79.9,72.6,65.5,63.7,27.6,-36.1,82,41,1,29.98,29.73,11,1,0,0.00
2013-8-24,80.8,67.2,57.6,63.4,56.4,52.6,98,71,43,30.23,30.01,5,0,0,0.00
2013-8-25,86.0,70.1,57.4,63.1,31.5,-42.4,98,43,1,30.27,30.09,3,0,0,0.00
2013-8-26,79.7,72.6,63.5,75.8,41.5,-33.6,98,58,3,30.11,29.77,2,0,0,0.21
2013-8-27,84.7,76.7,70.7,76.0,21.1,-34.4,98,36,4,29.80,29.70,14,1,0,0.00
2013-8-28,88.5,77.0,70.5,74.0,16.0,-34.5,88,32,1,29.79,29.71,0,0,0,0.00
2013-8-29,79.7,74.1,68.0,73.5,59.2,-33.0,92,65,1,29.92,29.75,0,0,0,0.00
2013-8-30,86.2,78.4,72.3,75.0,43.9,-33.2,98,52,16,29.83,29.72,6,1,0,0.00
2013-8-31,85.5,79.6,73.4,77.1,34.0,-32.8,88,45,2,29.73,29.66,3,0,0,0.00
2013-9-1,84.9,79.8,75.7,81.5,23.3,-31.4,98,33,1,29.74,29.66,2,0,0,0.00
2013-9-2,86.0,77.8,72.3,79.5,-9.7,-33.1,95,12,1,29.70,29.56,2,0,0,0.84
2013-9-3,80.6,72.5,61.9,68.2,41.1,-31.7,98,59,1,29.75,29.60,4,0,0,0.00
2013-9-4,83.7,73.3,61.9,64.5,60.6,47.0,86,66,45,29.84,29.76,2,0,0,0.00
2013-9-5,75.0,66.7,57.0,59.6,47.2,-39.3,70,54,45,30.02,29.79,11,1,0,0.00
2013-9-6,72.9,61.9,52.0,51.5,47.9,44.0,84,62,41,30.12,30.00,5,0,0,0.00
2013-9-7,80.4,71.4,52.2,59.3,54.5,32.1,81,57,39,30.01,29.77,8,0,0,0.00
2013-9-8,78.6,68.5,57.4,65.4,54.9,40.1,79,62,39,29.96,29.66,11,1,0,0.00
2013-9-9,72.9,61.5,47.1,56.5,52.8,43.7,88,74,49,30.07,29.95,3,0,0,0.00
2013-9-10,84.0,78.1,73.0,73.9,24.3,-33.0,81,36,10,30.04,29.91,3,0,0,0.00
2013-9-11,96.1,84.6,75.9,79.4,68.1,-31.3,79,62,32,29.97,29.85,3,0,0,0.00
2013-9-12,76.1,76.1,76.1,60.7,60.7,60.7,59,59,59,29.86,29.85,0,0,0,0.00